createdAt,value
2022-09-13T00:00:27.266Z,1.90
2022-09-13T00:01:28.218Z,1.60
2022-09-13T00:02:29.136Z,1.70
2022-09-13T00:03:29.989Z,1.30
2022-09-13T00:04:30.870Z,1.30
2022-09-13T00:05:31.753Z,1.30
2022-09-13T00:06:32.649Z,1.80
2022-09-13T00:07:33.529Z,1.30
2022-09-13T00:08:34.410Z,1.30
2022-09-13T00:09:35.403Z,2.00
2022-09-13T00:10:36.253Z,3.10
2022-09-13T00:11:37.121Z,1.50
2022-09-13T00:12:37.996Z,1.20
2022-09-13T00:13:38.898Z,1.10
2022-09-13T00:14:39.752Z,1.40
2022-09-13T00:15:40.636Z,1.40
2022-09-13T00:16:41.572Z,1.30
2022-09-13T00:17:42.409Z,1.30
2022-09-13T00:18:43.282Z,1.40
2022-09-13T00:19:44.164Z,1.30
2022-09-13T00:20:45.046Z,1.30
2022-09-13T00:21:45.937Z,1.30
2022-09-13T00:22:46.814Z,1.20
2022-09-13T00:23:47.694Z,1.10
2022-09-13T00:24:48.577Z,1.10
2022-09-13T00:25:49.458Z,1.30
2022-09-13T00:26:50.371Z,1.00
2022-09-13T00:27:51.254Z,1.30
2022-09-13T00:28:52.240Z,1.30
2022-09-13T00:29:53.044Z,1.10
2022-09-13T00:30:53.946Z,0.80
2022-09-13T00:31:54.890Z,1.10
2022-09-13T00:32:55.741Z,1.00
2022-09-13T00:33:56.624Z,0.80
2022-09-13T00:34:57.515Z,0.90
2022-09-13T00:35:58.417Z,1.20
2022-09-13T00:36:59.311Z,1.20
2022-09-13T00:38:00.190Z,1.00
2022-09-13T00:39:01.064Z,1.20
2022-09-13T00:40:02.016Z,1.10
2022-09-13T00:41:02.868Z,1.50
2022-09-13T00:42:03.762Z,1.30
2022-09-13T00:43:04.648Z,1.20
2022-09-13T00:44:05.588Z,1.00
2022-09-13T00:45:06.409Z,1.10
2022-09-13T00:46:07.325Z,1.00
2022-09-13T00:47:08.176Z,1.00
2022-09-13T00:48:09.058Z,0.90
2022-09-13T00:49:09.940Z,1.00
2022-09-13T00:50:10.814Z,1.00
2022-09-13T00:51:11.694Z,1.00
2022-09-13T00:52:12.605Z,1.00
2022-09-13T00:53:13.468Z,1.10
2022-09-13T00:54:14.344Z,1.30
2022-09-13T00:55:15.223Z,1.30
2022-09-13T00:56:16.106Z,1.00
2022-09-13T00:57:16.998Z,1.20
2022-09-13T00:58:17.882Z,1.20
2022-09-13T00:59:18.788Z,1.10
2022-09-13T01:00:19.653Z,1.20
2022-09-13T01:01:20.568Z,1.70
2022-09-13T01:02:21.449Z,1.30
2022-09-13T01:03:22.304Z,1.30
2022-09-13T01:04:23.181Z,1.10
2022-09-13T01:05:24.061Z,1.10
2022-09-13T01:06:24.935Z,1.00
2022-09-13T01:07:25.824Z,1.30
2022-09-13T01:08:26.699Z,1.20
2022-09-13T01:09:27.582Z,1.20
2022-09-13T01:10:28.484Z,1.40
2022-09-13T01:11:29.366Z,1.40
2022-09-13T01:12:30.259Z,1.50
2022-09-13T01:13:31.161Z,1.60
2022-09-13T01:14:32.061Z,2.00
2022-09-13T01:15:32.923Z,1.80
2022-09-13T01:16:33.812Z,1.90
2022-09-13T01:17:34.689Z,3.60
2022-09-13T01:18:35.562Z,3.60
2022-09-13T01:19:36.445Z,3.60
2022-09-13T01:20:37.318Z,3.20
2022-09-13T01:21:38.199Z,3.50
2022-09-13T01:22:39.081Z,2.90
2022-09-13T01:23:39.964Z,2.30
2022-09-13T01:24:40.847Z,1.60
2022-09-13T01:25:41.729Z,1.70
2022-09-13T01:26:42.602Z,1.80
2022-09-13T01:27:43.494Z,1.70
2022-09-13T01:28:44.368Z,2.00
2022-09-13T01:29:45.269Z,1.70
2022-09-13T01:30:46.123Z,2.10
2022-09-13T01:31:47.063Z,1.60
2022-09-13T01:32:47.957Z,1.70
2022-09-13T01:33:48.958Z,1.60
2022-09-13T01:34:49.826Z,1.40
2022-09-13T01:35:50.703Z,1.80
2022-09-13T01:36:51.587Z,1.50
2022-09-13T01:37:52.479Z,1.40
2022-09-13T01:38:53.352Z,1.10
2022-09-13T01:39:54.251Z,1.10
2022-09-13T01:40:55.110Z,1.90
2022-09-13T01:41:55.989Z,0.90
2022-09-13T01:42:56.874Z,1.00
2022-09-13T01:43:57.755Z,0.90
2022-09-13T01:44:58.646Z,1.00
2022-09-13T01:45:59.554Z,1.00
2022-09-13T01:47:00.401Z,1.90
2022-09-13T01:48:01.342Z,0.90
2022-09-13T01:49:02.216Z,0.90
2022-09-13T01:50:03.167Z,0.90
2022-09-13T01:51:03.811Z,0.90
2022-09-13T01:52:04.695Z,1.20
2022-09-13T01:53:05.578Z,0.90
2022-09-13T01:54:06.460Z,1.20
2022-09-13T01:55:07.333Z,1.50
2022-09-13T01:56:08.215Z,1.80
2022-09-13T01:57:09.112Z,1.40
2022-09-13T01:58:09.991Z,0.80
2022-09-13T01:59:10.865Z,0.80
2022-09-13T02:00:11.766Z,1.60
2022-09-13T02:01:12.682Z,1.00
2022-09-13T02:02:13.588Z,1.20
2022-09-13T02:03:14.409Z,1.40
2022-09-13T02:04:15.291Z,2.00
2022-09-13T02:05:16.173Z,1.30
2022-09-13T02:06:17.057Z,1.30
2022-09-13T02:07:17.949Z,1.30
2022-09-13T02:08:18.831Z,3.20
2022-09-13T02:09:21.595Z,1.20
2022-09-13T02:10:20.529Z,1.20
2022-09-13T02:11:21.414Z,1.20
2022-09-13T02:12:22.316Z,2.10
2022-09-13T02:13:23.176Z,1.30
2022-09-13T02:14:24.059Z,2.20
2022-09-13T02:15:25.034Z,2.80
2022-09-13T02:16:25.897Z,1.80
2022-09-13T02:17:26.736Z,0.80
2022-09-13T02:18:27.617Z,1.30
2022-09-13T02:19:28.500Z,0.80
2022-09-13T02:20:29.382Z,1.80
2022-09-13T02:21:30.261Z,0.80
2022-09-13T02:22:31.172Z,2.20
2022-09-13T02:23:32.064Z,0.70
2022-09-13T02:24:32.967Z,1.00
2022-09-13T02:25:33.839Z,1.20
2022-09-13T02:26:34.721Z,2.20
2022-09-13T02:27:35.604Z,1.60
2022-09-13T02:28:36.485Z,1.70
2022-09-13T02:29:37.359Z,2.50
2022-09-13T02:30:38.280Z,0.70
2022-09-13T02:31:39.195Z,4.40
2022-09-13T02:32:40.031Z,1.80
2022-09-13T02:33:40.904Z,1.90
2022-09-13T02:34:41.787Z,4.00
2022-09-13T02:35:42.659Z,3.20
2022-09-13T02:36:43.541Z,2.50
2022-09-13T02:37:44.424Z,2.00
2022-09-13T02:38:45.305Z,2.20
2022-09-13T02:39:46.201Z,1.60
2022-09-13T02:40:47.063Z,1.60
2022-09-13T02:41:47.947Z,1.50
2022-09-13T02:42:48.838Z,1.30
2022-09-13T02:43:49.710Z,1.30
2022-09-13T02:44:50.593Z,1.30
2022-09-13T02:45:51.648Z,1.20
2022-09-13T02:46:51.960Z,2.80
2022-09-13T02:47:52.843Z,1.70
2022-09-13T02:48:53.725Z,1.20
2022-09-13T02:49:54.604Z,1.40
2022-09-13T02:50:55.481Z,1.00
2022-09-13T02:51:56.367Z,0.80
2022-09-13T02:52:57.257Z,2.20
2022-09-13T02:53:58.132Z,1.70
2022-09-13T02:54:59.013Z,2.20
2022-09-13T02:55:59.898Z,1.10
2022-09-13T02:57:00.770Z,1.30
2022-09-13T02:58:01.666Z,0.90
2022-09-13T02:59:02.544Z,0.70
2022-09-13T03:00:03.418Z,0.90
2022-09-13T03:01:04.354Z,1.60
2022-09-13T03:02:05.273Z,2.50
2022-09-13T03:03:06.129Z,1.90
2022-09-13T03:04:06.999Z,1.30
2022-09-13T03:05:07.881Z,1.10
2022-09-13T03:06:08.755Z,1.20
2022-09-13T03:07:09.663Z,1.00
2022-09-13T03:08:10.548Z,0.90
2022-09-13T03:09:11.428Z,1.20
2022-09-13T03:10:12.312Z,1.00
2022-09-13T03:11:13.193Z,0.90
2022-09-13T03:12:14.085Z,0.70
2022-09-13T03:13:14.968Z,0.80
2022-09-13T03:14:15.851Z,0.80
2022-09-13T03:15:16.733Z,0.80
2022-09-13T03:16:17.673Z,0.80
2022-09-13T03:17:18.529Z,0.80
2022-09-13T03:18:19.406Z,1.30
2022-09-13T03:19:20.288Z,0.70
2022-09-13T03:20:21.165Z,0.90
2022-09-13T03:21:22.044Z,0.80
2022-09-13T03:22:22.927Z,1.80
2022-09-13T03:23:23.810Z,0.80
2022-09-13T03:24:24.687Z,0.60
2022-09-13T03:25:25.565Z,0.70
2022-09-13T03:26:26.439Z,1.30
2022-09-13T03:27:27.338Z,0.90
2022-09-13T03:28:28.214Z,0.80
2022-09-13T03:29:29.096Z,2.90
2022-09-13T03:30:29.970Z,0.90
2022-09-13T03:31:31.009Z,0.90
2022-09-13T03:32:31.366Z,0.90
2022-09-13T03:33:32.247Z,0.80
2022-09-13T03:34:33.149Z,0.70
2022-09-13T03:35:34.052Z,1.80
2022-09-13T03:36:34.921Z,0.90
2022-09-13T03:37:35.821Z,1.00
2022-09-13T03:38:36.722Z,1.40
2022-09-13T03:39:37.607Z,5.20
2022-09-13T03:40:38.491Z,7.70
2022-09-13T03:41:39.373Z,3.60
2022-09-13T03:42:40.266Z,3.30
2022-09-13T03:43:41.164Z,1.70
2022-09-13T03:44:42.033Z,1.90
2022-09-13T03:45:42.983Z,1.70
2022-09-13T03:46:43.871Z,1.60
2022-09-13T03:47:44.728Z,1.30
2022-09-13T03:48:45.662Z,1.40
2022-09-13T03:49:46.498Z,1.10
2022-09-13T03:50:47.366Z,1.00
2022-09-13T03:51:48.249Z,0.90
2022-09-13T03:52:49.132Z,0.90
2022-09-13T03:53:50.014Z,0.90
2022-09-13T03:54:50.888Z,0.90
2022-09-13T03:55:51.770Z,1.40
2022-09-13T03:56:52.644Z,2.20
2022-09-13T03:57:53.537Z,4.80
2022-09-13T03:58:54.420Z,4.60
2022-09-13T03:59:55.313Z,4.00
2022-09-13T04:00:56.222Z,3.10
2022-09-13T04:01:57.112Z,2.60
2022-09-13T04:02:57.994Z,2.30
2022-09-13T04:03:58.877Z,2.50
2022-09-13T04:04:59.766Z,1.60
2022-09-13T04:06:00.640Z,1.30
2022-09-13T04:07:01.515Z,2.80
2022-09-13T04:08:02.407Z,1.40
2022-09-13T04:09:03.291Z,1.00
2022-09-13T04:10:04.175Z,1.50
2022-09-13T04:11:05.047Z,1.40
2022-09-13T04:12:05.928Z,1.20
2022-09-13T04:13:06.811Z,1.10
2022-09-13T04:14:07.693Z,1.50
2022-09-13T04:15:08.566Z,1.20
2022-09-13T04:16:09.585Z,1.50
2022-09-13T04:17:10.435Z,2.60
2022-09-13T04:18:11.302Z,2.40
2022-09-13T04:19:12.177Z,1.60
2022-09-13T04:20:13.059Z,1.40
2022-09-13T04:21:13.941Z,1.30
2022-09-13T04:22:14.829Z,1.20
2022-09-13T04:23:15.719Z,1.30
2022-09-13T04:24:16.600Z,1.30
2022-09-13T04:25:17.474Z,1.40
2022-09-13T04:26:18.355Z,1.30
2022-09-13T04:27:19.245Z,1.60
2022-09-13T04:28:20.068Z,9.90
2022-09-13T04:29:20.940Z,6.20
2022-09-13T04:30:21.825Z,6.00
2022-09-13T04:31:22.711Z,3.90
2022-09-13T04:32:23.605Z,3.50
2022-09-13T04:33:24.468Z,3.30
2022-09-13T04:34:25.308Z,1.20
2022-09-13T04:35:26.131Z,1.20
2022-09-13T04:36:26.968Z,1.20
2022-09-13T04:37:27.852Z,1.40
2022-09-13T04:38:28.691Z,1.40
2022-09-13T04:39:29.512Z,1.40
2022-09-13T04:40:30.350Z,1.90
2022-09-13T04:41:31.180Z,1.40
2022-09-13T04:42:32.017Z,1.30
2022-09-13T04:43:32.845Z,1.30
2022-09-13T04:44:33.674Z,1.40
2022-09-13T04:45:34.596Z,1.30
2022-09-13T04:46:35.362Z,1.20
2022-09-13T04:47:36.210Z,1.60
2022-09-13T04:48:37.019Z,1.50
2022-09-13T04:49:37.853Z,1.60
2022-09-13T04:50:38.698Z,3.40
2022-09-13T04:51:39.508Z,4.00
2022-09-13T04:52:40.347Z,7.00
2022-09-13T04:53:41.183Z,4.50
2022-09-13T04:54:42.008Z,4.80
2022-09-13T04:55:42.837Z,3.30
2022-09-13T04:56:44.185Z,2.20
2022-09-13T04:57:44.525Z,2.00
2022-09-13T04:58:45.356Z,1.90
2022-09-13T04:59:46.171Z,1.60
2022-09-13T05:00:47.034Z,1.80
2022-09-13T05:01:47.870Z,1.50
2022-09-13T05:02:48.695Z,1.40
2022-09-13T05:03:49.504Z,1.60
2022-09-13T05:04:50.326Z,1.10
2022-09-13T05:05:51.158Z,1.30
2022-09-13T05:06:51.975Z,1.60
2022-09-13T05:07:52.813Z,1.90
2022-09-13T05:08:53.632Z,1.80
2022-09-13T05:09:54.480Z,1.80
2022-09-13T05:10:55.301Z,2.10
2022-09-13T05:11:56.130Z,2.80
2022-09-13T05:12:56.957Z,3.80
2022-09-13T05:13:57.786Z,1.10
2022-09-13T05:14:58.618Z,1.30
2022-09-13T05:15:59.621Z,1.10
2022-09-13T05:17:00.390Z,0.80
2022-09-13T05:18:01.244Z,1.80
2022-09-13T05:19:02.047Z,1.60
2022-09-13T05:20:02.874Z,1.10
2022-09-13T05:21:03.779Z,2.30
2022-09-13T05:22:04.585Z,1.10
2022-09-13T05:23:05.415Z,0.90
2022-09-13T05:24:06.245Z,1.00
2022-09-13T05:25:07.074Z,0.70
2022-09-13T05:26:07.902Z,0.80
2022-09-13T05:27:08.734Z,0.90
2022-09-13T05:28:09.568Z,1.00
2022-09-13T05:29:10.399Z,0.80
2022-09-13T05:30:11.226Z,1.00
2022-09-13T05:31:12.098Z,0.80
2022-09-13T05:32:12.905Z,1.60
2022-09-13T05:33:13.760Z,1.40
2022-09-13T05:34:14.573Z,1.30
2022-09-13T05:35:15.406Z,2.20
2022-09-13T05:36:16.230Z,3.00
2022-09-13T05:37:17.050Z,3.00
2022-09-13T05:38:17.887Z,2.40
2022-09-13T05:39:32.039Z,2.80
2022-09-13T05:40:20.455Z,2.60
2022-09-13T05:41:20.243Z,1.90
2022-09-13T05:42:21.068Z,1.90
2022-09-13T05:43:21.911Z,1.50
2022-09-13T05:44:22.740Z,3.10
2022-09-13T05:45:23.560Z,1.20
2022-09-13T05:46:24.412Z,2.20
2022-09-13T05:47:25.208Z,3.60
2022-09-13T05:48:26.064Z,1.10
2022-09-13T05:49:26.881Z,1.20
2022-09-13T05:50:56.808Z,1.30
2022-09-13T05:51:29.424Z,1.30
2022-09-13T05:52:29.252Z,1.00
2022-09-13T05:53:30.081Z,1.00
2022-09-13T05:54:30.912Z,2.10
2022-09-13T05:55:31.731Z,3.70
2022-09-13T05:56:32.560Z,4.60
2022-09-13T05:57:33.403Z,1.30
2022-09-13T05:58:34.240Z,2.90
2022-09-13T05:59:35.061Z,1.10
2022-09-13T06:00:35.889Z,1.10
2022-09-13T06:01:36.801Z,1.20
2022-09-13T06:02:37.784Z,1.00
2022-09-13T06:03:38.615Z,1.10
2022-09-13T06:04:39.417Z,1.30
2022-09-13T06:05:40.236Z,1.20
2022-09-13T06:06:41.065Z,2.80
2022-09-13T06:07:41.887Z,3.00
2022-09-13T06:08:42.771Z,2.40
2022-09-13T06:09:43.551Z,3.70
2022-09-13T06:10:44.399Z,1.50
2022-09-13T06:11:45.235Z,1.20
2022-09-13T06:12:46.051Z,1.10
2022-09-13T06:13:46.899Z,1.60
2022-09-13T06:14:47.721Z,4.70
2022-09-13T06:15:48.588Z,1.10
2022-09-13T06:16:49.440Z,1.10
2022-09-13T06:17:50.251Z,0.90
2022-09-13T06:18:51.103Z,1.30
2022-09-13T06:19:51.907Z,1.10
2022-09-13T06:20:52.760Z,0.90
2022-09-13T06:21:53.612Z,0.80
2022-09-13T06:22:54.420Z,0.90
2022-09-13T06:23:55.259Z,0.90
2022-09-13T06:24:56.091Z,0.80
2022-09-13T06:25:56.934Z,0.80
2022-09-13T06:26:57.755Z,0.80
2022-09-13T06:27:58.607Z,0.70
2022-09-13T06:28:59.425Z,0.70
2022-09-13T06:30:00.253Z,0.80
2022-09-13T06:31:01.143Z,0.80
2022-09-13T06:32:01.912Z,0.80
2022-09-13T06:33:02.801Z,0.90
2022-09-13T06:34:03.668Z,0.80
2022-09-13T06:35:04.421Z,0.90
2022-09-13T06:36:05.269Z,0.90
2022-09-13T06:37:06.085Z,0.80
2022-09-13T06:38:06.920Z,0.70
2022-09-13T06:39:07.756Z,0.80
2022-09-13T06:40:08.643Z,0.70
2022-09-13T06:41:09.416Z,0.70
2022-09-13T06:42:10.244Z,0.80
2022-09-13T06:43:11.075Z,0.70
2022-09-13T06:44:11.928Z,0.70
2022-09-13T06:45:12.747Z,0.80
2022-09-13T06:46:13.641Z,0.60
2022-09-13T06:47:14.427Z,0.70
2022-09-13T06:48:15.249Z,0.60
2022-09-13T06:49:16.236Z,0.70
2022-09-13T06:50:17.000Z,0.80
2022-09-13T06:51:17.828Z,0.80
2022-09-13T06:52:18.675Z,0.80
2022-09-13T06:53:19.507Z,0.80
2022-09-13T06:54:20.342Z,0.70
2022-09-13T06:55:21.347Z,1.00
2022-09-13T06:56:22.101Z,0.80
2022-09-13T06:57:22.930Z,0.80
2022-09-13T06:58:23.765Z,0.80
2022-09-13T06:59:24.600Z,0.90
2022-09-13T07:00:25.481Z,0.80
2022-09-13T07:01:26.486Z,0.60
2022-09-13T07:02:26.931Z,0.70
2022-09-13T07:03:27.715Z,0.80
2022-09-13T07:04:28.568Z,0.70
2022-09-13T07:05:29.378Z,0.90
2022-09-13T07:06:30.203Z,0.90
2022-09-13T07:07:31.038Z,0.80
2022-09-13T07:08:31.864Z,0.80
2022-09-13T07:09:32.703Z,0.80
2022-09-13T07:10:33.524Z,0.80
2022-09-13T07:11:34.355Z,0.80
2022-09-13T07:12:35.194Z,0.80
2022-09-13T07:13:36.026Z,0.80
2022-09-13T07:14:36.854Z,0.80
2022-09-13T07:15:37.704Z,0.80
2022-09-13T07:16:38.518Z,0.80
2022-09-13T07:17:39.341Z,0.80
2022-09-13T07:18:40.163Z,0.70
2022-09-13T07:19:41.106Z,0.70
2022-09-13T07:20:41.872Z,0.80
2022-09-13T07:21:42.712Z,0.80
2022-09-13T07:22:43.533Z,0.80
2022-09-13T07:23:44.380Z,0.80
2022-09-13T07:24:45.218Z,0.90
2022-09-13T07:25:46.032Z,0.80
2022-09-13T07:26:46.851Z,0.90
2022-09-13T07:27:47.683Z,0.80
2022-09-13T07:28:48.629Z,0.70
2022-09-13T07:29:49.002Z,0.80
2022-09-13T07:30:49.862Z,0.80
2022-09-13T07:31:50.662Z,0.90
2022-09-13T07:32:51.510Z,0.80
2022-09-13T07:33:52.337Z,0.80
2022-09-13T07:34:53.262Z,0.80
2022-09-13T07:35:54.013Z,0.80
2022-09-13T07:36:54.857Z,0.80
2022-09-13T07:37:55.676Z,0.80
2022-09-13T07:38:56.519Z,0.90
2022-09-13T07:39:57.403Z,0.70
2022-09-13T07:40:58.187Z,0.70
2022-09-13T07:41:59.025Z,0.70
2022-09-13T07:42:59.851Z,0.80
2022-09-13T07:44:00.686Z,0.80
2022-09-13T07:45:01.515Z,0.80
2022-09-13T07:46:02.377Z,0.70
2022-09-13T07:47:03.168Z,0.90
2022-09-13T07:48:03.996Z,1.00
2022-09-13T07:49:04.845Z,0.80
2022-09-13T07:50:05.692Z,1.00
2022-09-13T07:51:06.498Z,0.70
2022-09-13T07:52:07.322Z,0.70
2022-09-13T07:53:08.144Z,0.80
2022-09-13T07:54:08.987Z,0.90
2022-09-13T07:55:09.812Z,0.70
2022-09-13T07:56:10.641Z,0.80
2022-09-13T07:57:11.499Z,0.80
2022-09-13T07:58:12.321Z,0.80
2022-09-13T07:59:13.176Z,0.80
2022-09-13T08:00:14.002Z,0.70
2022-09-13T08:01:14.881Z,0.80
2022-09-13T08:02:15.688Z,0.70
2022-09-13T08:03:16.482Z,0.70
2022-09-13T08:04:17.321Z,0.80
2022-09-13T08:05:18.169Z,0.90
2022-09-13T08:06:18.981Z,0.70
2022-09-13T08:07:19.811Z,0.80
2022-09-13T08:08:20.643Z,0.80
2022-09-13T08:09:21.482Z,0.90
2022-09-13T08:10:22.319Z,0.80
2022-09-13T08:11:23.154Z,0.90
2022-09-13T08:12:23.969Z,0.80
2022-09-13T08:13:24.793Z,0.80
2022-09-13T08:14:25.633Z,0.80
2022-09-13T08:15:26.520Z,0.90
2022-09-13T08:16:27.288Z,0.80
2022-09-13T08:17:28.119Z,0.90
2022-09-13T08:18:28.948Z,0.80
2022-09-13T08:19:29.790Z,0.80
2022-09-13T08:20:30.648Z,0.80
2022-09-13T08:21:31.436Z,0.80
2022-09-13T08:22:32.265Z,0.80
2022-09-13T08:23:33.086Z,0.80
2022-09-13T08:24:33.926Z,0.70
2022-09-13T08:25:34.756Z,0.60
2022-09-13T08:26:35.586Z,0.70
2022-09-13T08:27:36.436Z,0.60
2022-09-13T08:28:37.243Z,0.60
2022-09-13T08:29:38.087Z,0.60
2022-09-13T08:30:38.976Z,0.50
2022-09-13T08:31:39.741Z,0.60
2022-09-13T08:32:40.574Z,0.60
2022-09-13T08:33:46.126Z,0.50
2022-09-13T08:34:43.139Z,0.60
2022-09-13T08:35:42.998Z,0.60
2022-09-13T08:36:43.809Z,0.60
2022-09-13T08:37:44.645Z,0.70
2022-09-13T08:38:45.479Z,0.70
2022-09-13T08:39:46.381Z,0.70
2022-09-13T08:40:47.203Z,0.60
2022-09-13T08:41:48.114Z,0.60
2022-09-13T08:42:48.899Z,0.60
2022-09-13T08:43:49.989Z,0.60
2022-09-13T08:44:50.319Z,0.60
2022-09-13T08:45:51.191Z,0.60
2022-09-13T08:46:51.980Z,0.60
2022-09-13T08:47:52.806Z,0.60
2022-09-13T08:48:53.626Z,0.60
2022-09-13T08:49:54.456Z,0.90
2022-09-13T08:50:55.327Z,0.60
2022-09-13T08:51:56.119Z,0.60
2022-09-13T08:52:56.949Z,0.80
2022-09-13T08:53:57.768Z,0.60
2022-09-13T08:54:58.715Z,0.60
2022-09-13T08:55:59.492Z,0.50
2022-09-13T08:57:00.318Z,0.80
2022-09-13T08:58:01.148Z,0.60
2022-09-13T08:59:01.978Z,0.50
2022-09-13T09:00:02.818Z,0.60
2022-09-13T09:01:03.731Z,0.50
2022-09-13T09:02:04.525Z,0.60
2022-09-13T09:03:05.356Z,0.60
2022-09-13T09:04:06.175Z,0.60
2022-09-13T09:05:07.038Z,0.50
2022-09-13T09:06:07.880Z,0.60
2022-09-13T09:07:08.688Z,0.60
2022-09-13T09:08:09.504Z,0.60
2022-09-13T09:09:10.341Z,0.70
2022-09-13T09:10:11.175Z,0.60
2022-09-13T09:11:12.013Z,0.60
2022-09-13T09:12:12.844Z,0.80
2022-09-13T09:13:13.666Z,0.60
2022-09-13T09:14:14.499Z,0.50
2022-09-13T09:15:15.326Z,0.60
2022-09-13T09:16:16.255Z,0.50
2022-09-13T09:17:17.093Z,0.50
2022-09-13T09:18:17.918Z,0.50
2022-09-13T09:19:18.738Z,0.50
2022-09-13T09:20:19.583Z,0.60
2022-09-13T09:21:20.430Z,0.60
2022-09-13T09:22:21.243Z,0.60
2022-09-13T09:23:22.087Z,0.60
2022-09-13T09:24:22.902Z,0.60
2022-09-13T09:25:23.739Z,0.60
2022-09-13T09:26:24.594Z,0.60
2022-09-13T09:27:25.413Z,0.60
2022-09-13T09:28:26.241Z,0.60
2022-09-13T09:29:27.061Z,0.60
2022-09-13T09:30:27.899Z,0.60
2022-09-13T09:31:28.721Z,0.60
2022-09-13T09:32:29.586Z,0.50
2022-09-13T09:33:30.399Z,0.60
2022-09-13T09:34:31.228Z,0.50
2022-09-13T09:35:32.067Z,0.60
2022-09-13T09:36:32.938Z,0.60
2022-09-13T09:37:33.738Z,0.50
2022-09-13T09:38:34.583Z,0.80
2022-09-13T09:39:35.397Z,0.80
2022-09-13T09:40:36.314Z,0.70
2022-09-13T09:41:37.157Z,0.70
2022-09-13T09:42:37.974Z,0.70
2022-09-13T09:43:38.799Z,0.80
2022-09-13T09:44:39.634Z,0.70
2022-09-13T09:45:40.467Z,0.60
2022-09-13T09:46:41.294Z,0.60
2022-09-13T09:47:42.141Z,0.70
2022-09-13T09:48:42.969Z,0.50
2022-09-13T09:49:43.793Z,0.50
2022-09-13T09:50:44.627Z,0.50
2022-09-13T09:51:45.559Z,0.50
2022-09-13T09:52:46.303Z,0.60
2022-09-13T09:53:47.246Z,0.50
2022-09-13T09:54:48.032Z,0.60
2022-09-13T09:55:48.864Z,0.70
2022-09-13T09:56:49.695Z,0.60
2022-09-13T09:57:50.526Z,0.70
2022-09-13T09:58:51.371Z,0.50
2022-09-13T09:59:52.209Z,0.50
2022-09-13T10:00:53.042Z,0.70
2022-09-13T10:01:53.913Z,0.60
2022-09-13T10:02:54.695Z,0.60
2022-09-13T10:03:55.515Z,0.60
2022-09-13T10:04:56.344Z,0.60
2022-09-13T10:05:57.184Z,0.60
2022-09-13T10:06:58.031Z,0.60
2022-09-13T10:07:58.838Z,0.60
2022-09-13T10:08:59.664Z,0.50
2022-09-13T10:10:00.502Z,0.60
2022-09-13T10:11:01.333Z,0.60
2022-09-13T10:12:02.164Z,0.60
2022-09-13T10:13:02.990Z,0.60
2022-09-13T10:14:03.820Z,0.50
2022-09-13T10:15:04.670Z,0.50
2022-09-13T10:16:05.486Z,0.60
2022-09-13T10:17:06.315Z,0.50
2022-09-13T10:18:16.944Z,0.60
2022-09-13T10:19:11.578Z,0.50
2022-09-13T10:20:08.481Z,0.50
2022-09-13T10:21:09.329Z,0.60
2022-09-13T10:22:10.168Z,0.50
2022-09-13T10:23:10.972Z,0.70
2022-09-13T10:24:11.802Z,0.60
2022-09-13T10:25:12.641Z,0.60
2022-09-13T10:26:13.460Z,0.60
2022-09-13T10:27:14.300Z,0.50
2022-09-13T10:28:15.125Z,0.60
2022-09-13T10:29:15.952Z,0.60
2022-09-13T10:30:16.798Z,0.60
2022-09-13T10:31:17.885Z,0.50
2022-09-13T10:32:18.206Z,0.50
2022-09-13T10:33:19.055Z,0.60
2022-09-13T10:34:19.864Z,0.50
2022-09-13T10:35:20.710Z,0.50
2022-09-13T10:36:48.353Z,0.40
2022-09-13T10:37:23.260Z,0.50
2022-09-13T10:38:23.072Z,0.60
2022-09-13T10:39:23.909Z,0.50
2022-09-13T10:40:24.810Z,0.50
2022-09-13T10:41:25.578Z,0.60
2022-09-13T10:42:26.399Z,0.50
2022-09-13T10:43:27.222Z,0.40
2022-09-13T10:44:28.051Z,0.50
2022-09-13T10:45:28.895Z,0.50
2022-09-13T10:46:29.742Z,0.50
2022-09-13T10:47:30.569Z,0.50
2022-09-13T10:48:31.393Z,0.50
2022-09-13T10:49:32.218Z,0.60
2022-09-13T10:50:33.046Z,0.60
2022-09-13T10:51:33.876Z,0.60
2022-09-13T10:52:34.799Z,0.50
2022-09-13T10:53:35.593Z,0.60
2022-09-13T10:54:36.415Z,0.60
2022-09-13T10:55:37.252Z,0.60
2022-09-13T10:56:38.071Z,0.60
2022-09-13T10:57:38.899Z,0.50
2022-09-13T10:58:39.721Z,0.60
2022-09-13T10:59:40.561Z,0.50
2022-09-13T11:00:41.387Z,0.60
2022-09-13T11:01:42.240Z,0.50
2022-09-13T11:02:43.033Z,0.50
2022-09-13T11:03:43.993Z,0.60
2022-09-13T11:04:44.780Z,0.50
2022-09-13T11:05:45.631Z,0.50
2022-09-13T11:06:46.448Z,0.40
2022-09-13T11:07:47.295Z,0.60
2022-09-13T11:08:48.109Z,0.50
2022-09-13T11:09:48.950Z,0.60
2022-09-13T11:10:49.779Z,0.50
2022-09-13T11:11:50.611Z,0.50
2022-09-13T11:12:51.436Z,0.60
2022-09-13T11:13:52.264Z,0.50
2022-09-13T11:14:53.083Z,0.50
2022-09-13T11:15:53.921Z,0.40
2022-09-13T11:16:54.806Z,0.50
2022-09-13T11:17:55.592Z,0.50
2022-09-13T11:18:56.407Z,0.40
2022-09-13T11:19:57.473Z,0.40
2022-09-13T11:20:57.817Z,0.60
2022-09-13T11:21:58.645Z,0.50
2022-09-13T11:22:59.573Z,0.50
2022-09-13T11:24:00.334Z,0.50
2022-09-13T11:25:01.191Z,0.50
2022-09-13T11:26:02.014Z,0.50
2022-09-13T11:27:02.838Z,0.50
2022-09-13T11:28:03.665Z,0.50
2022-09-13T11:29:04.497Z,0.60
2022-09-13T11:30:05.324Z,0.50
2022-09-13T11:31:06.181Z,0.40
2022-09-13T11:32:07.101Z,0.50
2022-09-13T11:33:07.911Z,0.40
2022-09-13T11:34:08.740Z,0.50
2022-09-13T11:35:09.568Z,0.50
2022-09-13T11:36:10.411Z,0.40
2022-09-13T11:37:11.272Z,0.40
2022-09-13T11:38:12.193Z,0.50
2022-09-13T11:39:12.942Z,0.60
2022-09-13T11:40:13.812Z,0.50
2022-09-13T11:41:14.597Z,0.50
2022-09-13T11:42:15.424Z,0.50
2022-09-13T11:43:16.258Z,0.50
2022-09-13T11:44:17.077Z,0.50
2022-09-13T11:45:21.476Z,0.60
2022-09-13T11:46:18.752Z,0.50
2022-09-13T11:47:19.586Z,0.40
2022-09-13T11:48:20.412Z,0.50
2022-09-13T11:49:21.258Z,0.50
2022-09-13T11:50:22.078Z,0.40
2022-09-13T11:51:22.917Z,0.50
2022-09-13T11:52:23.746Z,0.60
2022-09-13T11:53:28.196Z,0.50
2022-09-13T11:54:26.292Z,0.50
2022-09-13T11:55:26.125Z,0.50
2022-09-13T11:56:26.962Z,0.50
2022-09-13T11:57:27.793Z,0.50
2022-09-13T11:58:28.622Z,0.50
2022-09-13T11:59:29.441Z,0.50
2022-09-13T12:00:30.272Z,0.60
2022-09-13T12:01:31.120Z,0.50
2022-09-13T12:02:32.084Z,0.40
2022-09-13T12:03:32.589Z,0.50
2022-09-13T12:04:33.965Z,0.50
2022-09-13T12:05:34.316Z,0.50
2022-09-13T12:06:35.154Z,0.50
2022-09-13T12:07:35.995Z,0.50
2022-09-13T12:08:36.831Z,0.50
2022-09-13T12:09:37.642Z,0.50
2022-09-13T12:10:38.472Z,0.50
2022-09-13T12:11:39.301Z,0.50
2022-09-13T12:12:40.132Z,0.50
2022-09-13T12:13:40.978Z,0.50
2022-09-13T12:14:41.799Z,0.60
2022-09-13T12:15:42.622Z,0.50
2022-09-13T12:16:43.513Z,0.50
2022-09-13T12:17:44.275Z,0.50
2022-09-13T12:18:45.109Z,0.50
2022-09-13T12:19:45.942Z,0.50
2022-09-13T12:20:46.760Z,0.50
2022-09-13T12:21:47.582Z,0.50
2022-09-13T12:22:48.410Z,0.50
2022-09-13T12:23:49.591Z,0.40
2022-09-13T12:24:49.900Z,0.50
2022-09-13T12:25:50.737Z,0.60
2022-09-13T12:26:51.561Z,0.90
2022-09-13T12:27:52.380Z,0.50
2022-09-13T12:28:53.212Z,0.60
2022-09-13T12:29:54.040Z,0.40
2022-09-13T12:30:54.877Z,0.50
2022-09-13T12:31:55.750Z,0.50
2022-09-13T12:32:59.000Z,0.50
2022-09-13T12:33:57.480Z,0.40
2022-09-13T12:34:58.306Z,0.50
2022-09-13T12:35:59.136Z,0.70
2022-09-13T12:36:59.974Z,0.70
2022-09-13T12:38:00.814Z,0.50
2022-09-13T12:39:01.644Z,0.50
2022-09-13T12:40:02.500Z,0.60
2022-09-13T12:41:03.294Z,0.50
2022-09-13T12:42:04.134Z,0.50
2022-09-13T12:43:04.981Z,0.50
2022-09-13T12:44:05.832Z,0.50
2022-09-13T12:45:06.641Z,0.50
2022-09-13T12:46:07.510Z,0.60
2022-09-13T12:47:08.308Z,0.50
2022-09-13T12:48:09.120Z,0.60
2022-09-13T12:49:09.971Z,0.60
2022-09-13T12:50:36.767Z,0.70
2022-09-13T12:51:12.518Z,0.50
2022-09-13T12:52:12.349Z,0.50
2022-09-13T12:53:13.175Z,0.90
2022-09-13T12:54:14.022Z,0.50
2022-09-13T12:55:42.385Z,0.50
2022-09-13T12:56:16.566Z,0.50
2022-09-13T12:57:16.395Z,0.50
2022-09-13T12:58:17.215Z,0.60
2022-09-13T12:59:18.047Z,0.50
2022-09-13T13:00:18.869Z,0.50
2022-09-13T13:01:19.904Z,0.50
2022-09-13T13:02:20.279Z,0.50
2022-09-13T13:03:21.079Z,0.50
2022-09-13T13:04:21.907Z,0.60
2022-09-13T13:05:22.739Z,0.60
2022-09-13T13:06:23.558Z,0.50
2022-09-13T13:07:24.404Z,0.50
2022-09-13T13:08:25.240Z,0.60
2022-09-13T13:09:28.784Z,0.50
2022-09-13T13:10:26.850Z,0.60
2022-09-13T13:11:27.682Z,0.60
2022-09-13T13:12:28.512Z,0.60
2022-09-13T13:13:29.342Z,0.60
2022-09-13T13:14:30.198Z,0.60
2022-09-13T13:15:31.017Z,0.60
2022-09-13T13:16:31.917Z,0.40
2022-09-13T13:17:32.717Z,0.60
2022-09-13T13:18:33.535Z,0.60
2022-09-13T13:19:34.373Z,0.60
2022-09-13T13:20:35.189Z,0.60
2022-09-13T13:21:36.014Z,0.60
2022-09-13T13:22:36.846Z,0.60
2022-09-13T13:23:37.764Z,0.60
2022-09-13T13:24:38.721Z,0.60
2022-09-13T13:25:39.478Z,0.60
2022-09-13T13:26:40.329Z,0.70
2022-09-13T13:27:44.922Z,0.60
2022-09-13T13:28:42.876Z,0.70
2022-09-13T13:29:42.701Z,0.60